sensor_id;sensor_type;location;lat;lon;timestamp;pressure;altitude;pressure_sealevel;temperature;humidity
30598;BME280;17365;48.878;8.334;2023-02-03T00:00:27;101512.59;;;6.88;90.72
30598;BME280;17365;48.878;8.334;2023-02-03T00:02:53;101499.88;;;6.92;90.43
30598;BME280;17365;48.878;8.334;2023-02-03T00:05:19;101515.81;;;6.82;90.83
30598;BME280;17365;48.878;8.334;2023-02-03T00:07:44;101513.81;;;6.97;90.67
30598;BME280;17365;48.878;8.334;2023-02-03T00:10:10;101512.31;;;6.80;91.14
30598;BME280;17365;48.878;8.334;2023-02-03T00:12:35;101510.22;;;6.92;90.80
30598;BME280;17365;48.878;8.334;2023-02-03T00:15:01;101510.31;;;6.95;90.74
30598;BME280;17365;48.878;8.334;2023-02-03T00:17:26;101507.72;;;6.95;90.83
30598;BME280;17365;48.878;8.334;2023-02-03T00:19:51;101502.28;;;6.88;90.59
30598;BME280;17365;48.878;8.334;2023-02-03T00:22:17;101508.44;;;6.91;91.14
30598;BME280;17365;48.878;8.334;2023-02-03T00:24:42;101511.03;;;6.91;91.00
30598;BME280;17365;48.878;8.334;2023-02-03T00:27:07;101502.78;;;6.79;91.78
30598;BME280;17365;48.878;8.334;2023-02-03T00:29:32;101491.53;;;6.77;91.49
30598;BME280;17365;48.878;8.334;2023-02-03T00:31:58;101487.91;;;6.72;91.89
30598;BME280;17365;48.878;8.334;2023-02-03T00:34:27;101482.50;;;6.66;92.47
30598;BME280;17365;48.878;8.334;2023-02-03T00:36:54;101477.47;;;6.69;92.55
30598;BME280;17365;48.878;8.334;2023-02-03T00:39:19;101484.69;;;7.00;91.15
30598;BME280;17365;48.878;8.334;2023-02-03T00:41:44;101480.06;;;6.91;91.84
30598;BME280;17365;48.878;8.334;2023-02-03T00:44:10;101488.94;;;6.77;91.36
30598;BME280;17365;48.878;8.334;2023-02-03T00:46:35;101479.72;;;6.82;91.48
30598;BME280;17365;48.878;8.334;2023-02-03T00:49:01;101490.50;;;6.94;91.27
30598;BME280;17365;48.878;8.334;2023-02-03T00:51:27;101493.53;;;6.84;91.33
30598;BME280;17365;48.878;8.334;2023-02-03T00:53:52;101492.34;;;6.76;91.72
30598;BME280;17365;48.878;8.334;2023-02-03T00:56:18;101478.44;;;6.93;91.26
30598;BME280;17365;48.878;8.334;2023-02-03T00:58:43;101482.41;;;6.85;90.46
30598;BME280;17365;48.878;8.334;2023-02-03T01:01:08;101487.03;;;6.94;90.96
30598;BME280;17365;48.878;8.334;2023-02-03T01:03:34;101497.06;;;6.86;90.91
30598;BME280;17365;48.878;8.334;2023-02-03T01:06:14;101492.72;;;6.85;90.92
30598;BME280;17365;48.878;8.334;2023-02-03T01:08:40;101491.66;;;6.80;90.87
30598;BME280;17365;48.878;8.334;2023-02-03T01:11:12;101483.38;;;6.89;90.52
30598;BME280;17365;48.878;8.334;2023-02-03T01:13:38;101480.94;;;6.92;90.57
30598;BME280;17365;48.878;8.334;2023-02-03T01:16:09;101476.63;;;6.91;90.13
30598;BME280;17365;48.878;8.334;2023-02-03T01:18:34;101456.31;;;7.00;90.23
30598;BME280;17365;48.878;8.334;2023-02-03T01:21:11;101458.78;;;6.97;89.69
30598;BME280;17365;48.878;8.334;2023-02-03T01:23:37;101461.41;;;6.76;91.44
30598;BME280;17365;48.878;8.334;2023-02-03T01:26:14;101458.88;;;6.78;92.02
30598;BME280;17365;48.878;8.334;2023-02-03T01:28:40;101447.22;;;6.87;91.50
30598;BME280;17365;48.878;8.334;2023-02-03T01:31:13;101440.56;;;6.92;91.70
30598;BME280;17365;48.878;8.334;2023-02-03T01:33:39;101462.69;;;6.87;91.94
30598;BME280;17365;48.878;8.334;2023-02-03T01:36:07;101470.91;;;6.99;91.50
30598;BME280;17365;48.878;8.334;2023-02-03T01:38:33;101467.50;;;6.78;92.79
30598;BME280;17365;48.878;8.334;2023-02-03T01:40:58;101482.69;;;6.70;93.68
30598;BME280;17365;48.878;8.334;2023-02-03T01:43:45;101491.47;;;6.76;93.37
30598;BME280;17365;48.878;8.334;2023-02-03T01:51:43;101474.53;;;6.60;95.02
30598;BME280;17365;48.878;8.334;2023-02-03T01:54:13;101469.00;;;6.51;96.10
30598;BME280;17365;48.878;8.334;2023-02-03T01:56:43;101463.19;;;6.56;96.06
30598;BME280;17365;48.878;8.334;2023-02-03T01:59:10;101457.31;;;6.59;96.23
30598;BME280;17365;48.878;8.334;2023-02-03T02:01:36;101456.34;;;6.34;97.90
30598;BME280;17365;48.878;8.334;2023-02-03T02:04:02;101447.78;;;6.35;97.83
30598;BME280;17365;48.878;8.334;2023-02-03T02:06:28;101444.06;;;6.50;97.32
30598;BME280;17365;48.878;8.334;2023-02-03T02:08:54;101436.19;;;6.47;98.10
30598;BME280;17365;48.878;8.334;2023-02-03T02:11:22;101415.84;;;6.32;98.85
30598;BME280;17365;48.878;8.334;2023-02-03T02:13:49;101391.38;;;6.22;99.77
30598;BME280;17365;48.878;8.334;2023-02-03T02:19:37;101357.41;;;6.10;100.00
30598;BME280;17365;48.878;8.334;2023-02-03T02:24:57;101403.59;;;6.26;99.81
30598;BME280;17365;48.878;8.334;2023-02-03T02:30:38;101394.59;;;6.37;99.45
30598;BME280;17365;48.878;8.334;2023-02-03T02:35:57;101400.13;;;6.47;98.31
30598;BME280;17365;48.878;8.334;2023-02-03T02:41:06;101382.41;;;6.56;98.13
30598;BME280;17365;48.878;8.334;2023-02-03T02:43:59;101392.13;;;6.63;97.09
30598;BME280;17365;48.878;8.334;2023-02-03T02:51:42;101389.81;;;6.69;96.43
30598;BME280;17365;48.878;8.334;2023-02-03T02:54:12;101395.69;;;6.66;96.41
30598;BME280;17365;48.878;8.334;2023-02-03T02:56:40;101375.38;;;6.74;96.01
30598;BME280;17365;48.878;8.334;2023-02-03T02:59:08;101371.25;;;6.79;95.25
30598;BME280;17365;48.878;8.334;2023-02-03T03:01:33;101362.53;;;6.76;95.47
30598;BME280;17365;48.878;8.334;2023-02-03T03:04:01;101357.78;;;6.64;95.63
30598;BME280;17365;48.878;8.334;2023-02-03T03:06:32;101354.69;;;6.72;94.84
30598;BME280;17365;48.878;8.334;2023-02-03T03:14:29;101350.56;;;6.78;93.75
30598;BME280;17365;48.878;8.334;2023-02-03T03:17:00;101341.03;;;6.75;94.23
30598;BME280;17365;48.878;8.334;2023-02-03T03:19:33;101356.50;;;6.75;93.34
30598;BME280;17365;48.878;8.334;2023-02-03T03:22:02;101346.28;;;6.78;93.63
30598;BME280;17365;48.878;8.334;2023-02-03T03:24:38;101343.22;;;6.88;92.56
30598;BME280;17365;48.878;8.334;2023-02-03T03:27:13;101343.41;;;6.69;93.28
30598;BME280;17365;48.878;8.334;2023-02-03T03:29:44;101352.03;;;6.93;92.82
30598;BME280;17365;48.878;8.334;2023-02-03T03:32:13;101366.44;;;6.88;93.12
30598;BME280;17365;48.878;8.334;2023-02-03T03:34:38;101375.94;;;6.89;93.36
30598;BME280;17365;48.878;8.334;2023-02-03T03:37:22;101386.16;;;6.86;92.70
30598;BME280;17365;48.878;8.334;2023-02-03T03:39:59;101386.44;;;6.94;92.94
30598;BME280;17365;48.878;8.334;2023-02-03T03:42:33;101397.03;;;6.79;93.16
30598;BME280;17365;48.878;8.334;2023-02-03T03:47:34;101390.59;;;6.90;92.22
30598;BME280;17365;48.878;8.334;2023-02-03T03:50:05;101404.88;;;6.81;92.64
30598;BME280;17365;48.878;8.334;2023-02-03T03:52:33;101414.16;;;6.77;92.96
30598;BME280;17365;48.878;8.334;2023-02-03T03:55:02;101410.53;;;6.94;92.80
30598;BME280;17365;48.878;8.334;2023-02-03T03:57:35;101441.50;;;6.94;92.69
30598;BME280;17365;48.878;8.334;2023-02-03T04:00:04;101443.75;;;6.87;92.89
30598;BME280;17365;48.878;8.334;2023-02-03T04:02:34;101434.22;;;6.84;92.33
30598;BME280;17365;48.878;8.334;2023-02-03T04:05:01;101443.09;;;6.68;93.11
30598;BME280;17365;48.878;8.334;2023-02-03T04:07:44;101440.09;;;6.80;92.04
30598;BME280;17365;48.878;8.334;2023-02-03T04:10:24;101452.38;;;6.87;92.07
30598;BME280;17365;48.878;8.334;2023-02-03T04:12:51;101453.66;;;6.76;92.41
30598;BME280;17365;48.878;8.334;2023-02-03T04:15:16;101454.84;;;6.84;92.04
30598;BME280;17365;48.878;8.334;2023-02-03T04:17:41;101452.22;;;6.83;92.17
30598;BME280;17365;48.878;8.334;2023-02-03T04:20:07;101446.69;;;6.74;92.51
30598;BME280;17365;48.878;8.334;2023-02-03T04:22:32;101432.16;;;6.76;92.36
30598;BME280;17365;48.878;8.334;2023-02-03T04:24:58;101420.97;;;6.75;92.52
30598;BME280;17365;48.878;8.334;2023-02-03T04:27:24;101419.94;;;6.70;93.07
30598;BME280;17365;48.878;8.334;2023-02-03T04:29:50;101410.44;;;6.69;93.71
30598;BME280;17365;48.878;8.334;2023-02-03T04:32:15;101421.53;;;6.68;94.39
30598;BME280;17365;48.878;8.334;2023-02-03T04:34:40;101420.44;;;6.61;95.65
30598;BME280;17365;48.878;8.334;2023-02-03T04:37:06;101416.28;;;6.65;95.24
30598;BME280;17365;48.878;8.334;2023-02-03T04:39:31;101412.50;;;6.57;95.53
30598;BME280;17365;48.878;8.334;2023-02-03T04:41:56;101409.16;;;6.58;95.47
30598;BME280;17365;48.878;8.334;2023-02-03T04:44:22;101425.72;;;6.64;95.52
30598;BME280;17365;48.878;8.334;2023-02-03T04:46:47;101413.41;;;6.57;95.57
30598;BME280;17365;48.878;8.334;2023-02-03T04:49:12;101410.66;;;6.53;95.19
30598;BME280;17365;48.878;8.334;2023-02-03T04:51:37;101409.06;;;6.56;95.30
30598;BME280;17365;48.878;8.334;2023-02-03T04:54:03;101419.38;;;6.56;94.59
30598;BME280;17365;48.878;8.334;2023-02-03T04:56:28;101413.91;;;6.69;94.15
30598;BME280;17365;48.878;8.334;2023-02-03T04:58:53;101416.94;;;6.59;94.29
30598;BME280;17365;48.878;8.334;2023-02-03T05:01:18;101411.47;;;6.52;94.76
30598;BME280;17365;48.878;8.334;2023-02-03T05:03:44;101408.84;;;6.50;94.00
30598;BME280;17365;48.878;8.334;2023-02-03T05:06:09;101415.28;;;6.61;93.99
30598;BME280;17365;48.878;8.334;2023-02-03T05:08:34;101414.41;;;6.61;93.32
30598;BME280;17365;48.878;8.334;2023-02-03T05:11:00;101422.16;;;6.61;93.41
30598;BME280;17365;48.878;8.334;2023-02-03T05:13:25;101427.47;;;6.65;93.31
30598;BME280;17365;48.878;8.334;2023-02-03T05:15:51;101428.19;;;6.61;93.52
30598;BME280;17365;48.878;8.334;2023-02-03T05:18:16;101415.34;;;6.63;93.25
30598;BME280;17365;48.878;8.334;2023-02-03T05:20:41;101416.09;;;6.60;93.55
30598;BME280;17365;48.878;8.334;2023-02-03T05:23:06;101412.84;;;6.43;93.98
30598;BME280;17365;48.878;8.334;2023-02-03T05:25:32;101424.72;;;6.61;93.47
30598;BME280;17365;48.878;8.334;2023-02-03T05:27:57;101421.44;;;6.65;93.06
30598;BME280;17365;48.878;8.334;2023-02-03T05:30:22;101410.13;;;6.84;92.37
30598;BME280;17365;48.878;8.334;2023-02-03T05:32:48;101408.53;;;6.65;92.63
30598;BME280;17365;48.878;8.334;2023-02-03T05:35:14;101404.41;;;6.68;93.11
30598;BME280;17365;48.878;8.334;2023-02-03T05:37:39;101401.56;;;6.62;93.47
30598;BME280;17365;48.878;8.334;2023-02-03T05:40:05;101400.91;;;6.68;93.02
30598;BME280;17365;48.878;8.334;2023-02-03T05:42:50;101407.09;;;6.71;92.96
30598;BME280;17365;48.878;8.334;2023-02-03T05:45:15;101401.63;;;6.86;92.44
30598;BME280;17365;48.878;8.334;2023-02-03T05:47:41;101408.19;;;6.78;92.71
30598;BME280;17365;48.878;8.334;2023-02-03T05:50:07;101414.31;;;6.80;92.24
30598;BME280;17365;48.878;8.334;2023-02-03T05:52:32;101424.19;;;6.92;91.74
30598;BME280;17365;48.878;8.334;2023-02-03T05:54:57;101406.31;;;6.74;91.92
30598;BME280;17365;48.878;8.334;2023-02-03T05:57:22;101405.84;;;6.84;91.05
30598;BME280;17365;48.878;8.334;2023-02-03T05:59:48;101405.84;;;6.62;91.82
30598;BME280;17365;48.878;8.334;2023-02-03T06:02:14;101405.13;;;6.66;91.12
30598;BME280;17365;48.878;8.334;2023-02-03T06:04:39;101420.34;;;6.58;91.62
30598;BME280;17365;48.878;8.334;2023-02-03T06:07:05;101419.47;;;6.80;91.47
30598;BME280;17365;48.878;8.334;2023-02-03T06:09:30;101425.91;;;6.69;91.53
30598;BME280;17365;48.878;8.334;2023-02-03T06:11:55;101395.19;;;6.75;91.24
30598;BME280;17365;48.878;8.334;2023-02-03T06:14:21;101387.75;;;6.83;90.84
30598;BME280;17365;48.878;8.334;2023-02-03T06:16:46;101396.00;;;6.74;90.98
30598;BME280;17365;48.878;8.334;2023-02-03T06:19:11;101386.97;;;6.63;91.22
30598;BME280;17365;48.878;8.334;2023-02-03T06:21:37;101387.97;;;6.66;91.15
30598;BME280;17365;48.878;8.334;2023-02-03T06:24:02;101385.22;;;6.84;90.47
30598;BME280;17365;48.878;8.334;2023-02-03T06:26:27;101384.78;;;6.96;90.09
30598;BME280;17365;48.878;8.334;2023-02-03T06:28:53;101402.78;;;6.94;89.81
30598;BME280;17365;48.878;8.334;2023-02-03T06:31:18;101413.69;;;6.87;89.96
30598;BME280;17365;48.878;8.334;2023-02-03T06:33:43;101414.63;;;6.67;91.04
30598;BME280;17365;48.878;8.334;2023-02-03T06:36:09;101416.56;;;6.72;91.71
30598;BME280;17365;48.878;8.334;2023-02-03T06:38:34;101404.19;;;6.86;91.39
30598;BME280;17365;48.878;8.334;2023-02-03T06:40:59;101387.63;;;6.80;92.02
30598;BME280;17365;48.878;8.334;2023-02-03T06:43:25;101386.34;;;6.68;92.45
30598;BME280;17365;48.878;8.334;2023-02-03T06:45:50;101383.16;;;6.76;92.33
30598;BME280;17365;48.878;8.334;2023-02-03T06:48:16;101384.75;;;6.72;92.87
30598;BME280;17365;48.878;8.334;2023-02-03T06:50:42;101398.63;;;6.76;92.67
30598;BME280;17365;48.878;8.334;2023-02-03T06:53:07;101390.13;;;6.78;93.10
30598;BME280;17365;48.878;8.334;2023-02-03T06:55:32;101397.53;;;6.69;93.08
30598;BME280;17365;48.878;8.334;2023-02-03T06:57:58;101405.09;;;6.64;93.63
30598;BME280;17365;48.878;8.334;2023-02-03T07:00:23;101400.19;;;6.70;93.22
30598;BME280;17365;48.878;8.334;2023-02-03T07:02:53;101409.88;;;6.78;92.71
30598;BME280;17365;48.878;8.334;2023-02-03T07:05:18;101409.31;;;6.85;92.54
30598;BME280;17365;48.878;8.334;2023-02-03T07:07:44;101389.44;;;6.82;92.83
30598;BME280;17365;48.878;8.334;2023-02-03T07:10:09;101407.50;;;6.82;92.53
30598;BME280;17365;48.878;8.334;2023-02-03T07:12:34;101391.81;;;6.78;92.62
30598;BME280;17365;48.878;8.334;2023-02-03T07:15:01;101383.47;;;6.83;92.71
30598;BME280;17365;48.878;8.334;2023-02-03T07:17:26;101392.59;;;6.75;93.01
30598;BME280;17365;48.878;8.334;2023-02-03T07:19:52;101392.13;;;6.85;92.59
30598;BME280;17365;48.878;8.334;2023-02-03T07:22:17;101372.78;;;6.74;93.42
30598;BME280;17365;48.878;8.334;2023-02-03T07:24:42;101367.91;;;7.04;94.56
30598;BME280;17365;48.878;8.334;2023-02-03T07:27:08;101368.13;;;7.59;89.45
30598;BME280;17365;48.878;8.334;2023-02-03T07:29:33;101361.94;;;8.07;89.02
30598;BME280;17365;48.878;8.334;2023-02-03T07:31:58;101369.00;;;7.60;89.59
30598;BME280;17365;48.878;8.334;2023-02-03T07:34:26;101365.59;;;7.61;88.77
30598;BME280;17365;48.878;8.334;2023-02-03T07:36:51;101370.91;;;7.66;89.04
30598;BME280;17365;48.878;8.334;2023-02-03T07:39:17;101373.25;;;8.10;87.46
30598;BME280;17365;48.878;8.334;2023-02-03T07:41:42;101398.38;;;7.89;87.30
30598;BME280;17365;48.878;8.334;2023-02-03T07:44:07;101392.59;;;7.96;86.76
30598;BME280;17365;48.878;8.334;2023-02-03T07:46:33;101399.63;;;7.75;86.89
30598;BME280;17365;48.878;8.334;2023-02-03T07:48:59;101423.91;;;8.05;86.09
30598;BME280;17365;48.878;8.334;2023-02-03T07:51:24;101428.44;;;8.12;86.21
30598;BME280;17365;48.878;8.334;2023-02-03T07:53:49;101436.53;;;7.71;87.06
30598;BME280;17365;48.878;8.334;2023-02-03T07:56:14;101428.19;;;7.79;87.71
30598;BME280;17365;48.878;8.334;2023-02-03T07:58:40;101435.31;;;7.61;87.39
30598;BME280;17365;48.878;8.334;2023-02-03T08:01:14;101429.00;;;7.29;88.53
30598;BME280;17365;48.878;8.334;2023-02-03T08:03:40;101429.00;;;7.05;89.66
30598;BME280;17365;48.878;8.334;2023-02-03T08:06:06;101432.56;;;7.09;89.66
30598;BME280;17365;48.878;8.334;2023-02-03T08:08:32;101452.63;;;7.16;90.39
30598;BME280;17365;48.878;8.334;2023-02-03T08:10:57;101455.19;;;7.16;90.11
30598;BME280;17365;48.878;8.334;2023-02-03T08:13:22;101468.19;;;7.19;89.60
30598;BME280;17365;48.878;8.334;2023-02-03T08:15:47;101463.09;;;7.20;89.97
30598;BME280;17365;48.878;8.334;2023-02-03T08:18:13;101457.53;;;7.10;90.12
30598;BME280;17365;48.878;8.334;2023-02-03T08:20:38;101450.56;;;7.07;90.50
30598;BME280;17365;48.878;8.334;2023-02-03T08:23:03;101441.69;;;7.00;90.43
30598;BME280;17365;48.878;8.334;2023-02-03T08:25:29;101436.19;;;7.14;91.01
30598;BME280;17365;48.878;8.334;2023-02-03T08:27:55;101431.97;;;7.16;90.28
30598;BME280;17365;48.878;8.334;2023-02-03T08:30:21;101453.13;;;7.07;90.71
30598;BME280;17365;48.878;8.334;2023-02-03T08:32:46;101458.75;;;7.19;90.90
30598;BME280;17365;48.878;8.334;2023-02-03T08:35:12;101467.63;;;7.04;91.44
30598;BME280;17365;48.878;8.334;2023-02-03T08:37:37;101472.31;;;7.14;91.83
30598;BME280;17365;48.878;8.334;2023-02-03T08:40:04;101480.28;;;7.20;91.92
30598;BME280;17365;48.878;8.334;2023-02-03T08:42:29;101476.81;;;7.19;92.24
30598;BME280;17365;48.878;8.334;2023-02-03T08:44:55;101459.72;;;7.23;91.67
30598;BME280;17365;48.878;8.334;2023-02-03T08:47:20;101471.59;;;7.18;91.99
30598;BME280;17365;48.878;8.334;2023-02-03T08:49:46;101468.63;;;7.07;92.93
30598;BME280;17365;48.878;8.334;2023-02-03T08:52:12;101479.94;;;7.11;92.20
30598;BME280;17365;48.878;8.334;2023-02-03T08:54:38;101467.84;;;7.10;93.16
30598;BME280;17365;48.878;8.334;2023-02-03T08:57:04;101465.78;;;7.23;92.37
30598;BME280;17365;48.878;8.334;2023-02-03T08:59:30;101454.94;;;7.10;92.70
30598;BME280;17365;48.878;8.334;2023-02-03T09:01:55;101442.63;;;7.25;92.73
30598;BME280;17365;48.878;8.334;2023-02-03T09:04:21;101450.25;;;7.22;92.43
30598;BME280;17365;48.878;8.334;2023-02-03T09:06:52;101452.03;;;7.24;92.41
30598;BME280;17365;48.878;8.334;2023-02-03T09:09:21;101445.59;;;7.13;93.01
30598;BME280;17365;48.878;8.334;2023-02-03T09:11:47;101458.91;;;7.24;92.30
30598;BME280;17365;48.878;8.334;2023-02-03T09:14:12;101452.28;;;7.30;91.89
30598;BME280;17365;48.878;8.334;2023-02-03T09:16:38;101459.88;;;7.26;91.42
30598;BME280;17365;48.878;8.334;2023-02-03T09:19:03;101447.78;;;7.25;91.83
30598;BME280;17365;48.878;8.334;2023-02-03T09:21:29;101457.75;;;7.38;91.35
30598;BME280;17365;48.878;8.334;2023-02-03T09:23:54;101467.19;;;7.38;91.26
30598;BME280;17365;48.878;8.334;2023-02-03T09:26:19;101456.56;;;7.30;91.59
30598;BME280;17365;48.878;8.334;2023-02-03T09:28:45;101459.06;;;7.51;91.12
30598;BME280;17365;48.878;8.334;2023-02-03T09:31:13;101454.38;;;7.41;92.29
30598;BME280;17365;48.878;8.334;2023-02-03T09:33:39;101475.94;;;7.19;94.18
30598;BME280;17365;48.878;8.334;2023-02-03T09:36:06;101459.66;;;7.44;93.99
30598;BME280;17365;48.878;8.334;2023-02-03T09:38:32;101448.81;;;7.30;95.02
30598;BME280;17365;48.878;8.334;2023-02-03T09:46:29;101453.16;;;7.31;95.95
30598;BME280;17365;48.878;8.334;2023-02-03T09:48:58;101449.41;;;7.23;96.12
30598;BME280;17365;48.878;8.334;2023-02-03T09:51:33;101444.25;;;7.23;95.98
30598;BME280;17365;48.878;8.334;2023-02-03T09:56:48;101436.16;;;7.36;94.93
30598;BME280;17365;48.878;8.334;2023-02-03T09:59:21;101433.44;;;7.33;95.00
30598;BME280;17365;48.878;8.334;2023-02-03T10:02:01;101427.69;;;7.40;94.37
30598;BME280;17365;48.878;8.334;2023-02-03T10:04:37;101423.00;;;7.54;94.20
30598;BME280;17365;48.878;8.334;2023-02-03T10:15:42;101435.34;;;7.37;93.75
30598;BME280;17365;48.878;8.334;2023-02-03T10:18:23;101451.50;;;7.33;95.68
30598;BME280;17365;48.878;8.334;2023-02-03T10:21:00;101463.59;;;7.34;95.23
30598;BME280;17365;48.878;8.334;2023-02-03T10:23:33;101459.31;;;7.58;94.69
30598;BME280;17365;48.878;8.334;2023-02-03T10:26:03;101459.63;;;7.68;94.53
30598;BME280;17365;48.878;8.334;2023-02-03T10:28:31;101467.56;;;7.72;93.32
30598;BME280;17365;48.878;8.334;2023-02-03T10:31:01;101474.25;;;7.67;93.11
30598;BME280;17365;48.878;8.334;2023-02-03T10:33:30;101473.28;;;7.64;93.27
30598;BME280;17365;48.878;8.334;2023-02-03T10:41:28;101449.63;;;7.77;91.41
30598;BME280;17365;48.878;8.334;2023-02-03T10:43:55;101450.13;;;7.67;91.23
30598;BME280;17365;48.878;8.334;2023-02-03T10:46:27;101446.56;;;7.63;90.96
30598;BME280;17365;48.878;8.334;2023-02-03T10:48:53;101424.66;;;7.77;90.11
30598;BME280;17365;48.878;8.334;2023-02-03T10:51:27;101427.75;;;7.67;90.79
30598;BME280;17365;48.878;8.334;2023-02-03T10:53:56;101436.44;;;7.69;91.31
30598;BME280;17365;48.878;8.334;2023-02-03T10:56:25;101436.63;;;7.74;91.99
30598;BME280;17365;48.878;8.334;2023-02-03T10:58:59;101435.50;;;7.67;92.29
30598;BME280;17365;48.878;8.334;2023-02-03T11:01:39;101432.34;;;7.50;92.82
30598;BME280;17365;48.878;8.334;2023-02-03T11:04:06;101423.69;;;7.48;93.39
30598;BME280;17365;48.878;8.334;2023-02-03T11:06:32;101411.44;;;7.68;93.41
30598;BME280;17365;48.878;8.334;2023-02-03T11:08:58;101412.53;;;7.49;93.75
30598;BME280;17365;48.878;8.334;2023-02-03T11:11:26;101414.38;;;7.79;92.99
30598;BME280;17365;48.878;8.334;2023-02-03T11:13:53;101414.19;;;7.73;92.43
30598;BME280;17365;48.878;8.334;2023-02-03T11:16:19;101425.69;;;7.57;93.55
30598;BME280;17365;48.878;8.334;2023-02-03T11:18:54;101422.50;;;7.64;93.10
30598;BME280;17365;48.878;8.334;2023-02-03T11:21:23;101420.56;;;7.58;92.90
30598;BME280;17365;48.878;8.334;2023-02-03T11:23:53;101407.78;;;7.62;92.49
30598;BME280;17365;48.878;8.334;2023-02-03T11:26:23;101408.72;;;7.64;91.50
30598;BME280;17365;48.878;8.334;2023-02-03T11:28:50;101406.53;;;7.76;90.77
30598;BME280;17365;48.878;8.334;2023-02-03T11:31:20;101407.41;;;7.76;91.60
30598;BME280;17365;48.878;8.334;2023-02-03T11:33:48;101397.97;;;7.77;90.27
30598;BME280;17365;48.878;8.334;2023-02-03T11:36:16;101390.94;;;7.73;90.00
30598;BME280;17365;48.878;8.334;2023-02-03T11:38:42;101403.53;;;7.64;90.39
30598;BME280;17365;48.878;8.334;2023-02-03T11:41:19;101391.75;;;7.70;89.75
30598;BME280;17365;48.878;8.334;2023-02-03T11:43:46;101406.03;;;7.61;91.43
30598;BME280;17365;48.878;8.334;2023-02-03T11:46:12;101407.50;;;7.79;90.88
30598;BME280;17365;48.878;8.334;2023-02-03T11:48:59;101395.94;;;7.68;92.40
30598;BME280;17365;48.878;8.334;2023-02-03T12:04:42;101364.91;;;7.67;91.56
30598;BME280;17365;48.878;8.334;2023-02-03T12:07:25;101384.09;;;7.73;91.32
30598;BME280;17365;48.878;8.334;2023-02-03T12:10:20;101391.66;;;7.69;91.64
30598;BME280;17365;48.878;8.334;2023-02-03T12:13:04;101394.56;;;7.78;91.37
30598;BME280;17365;48.878;8.334;2023-02-03T12:23:55;101380.06;;;7.81;90.52
30598;BME280;17365;48.878;8.334;2023-02-03T12:26:39;101391.44;;;7.88;90.46
30598;BME280;17365;48.878;8.334;2023-02-03T12:29:20;101377.88;;;7.68;91.08
30598;BME280;17365;48.878;8.334;2023-02-03T12:32:01;101379.50;;;7.92;90.48
30598;BME280;17365;48.878;8.334;2023-02-03T12:37:14;101389.59;;;7.84;90.42
30598;BME280;17365;48.878;8.334;2023-02-03T12:39:51;101387.56;;;8.01;89.54
30598;BME280;17365;48.878;8.334;2023-02-03T12:42:30;101400.47;;;8.01;89.21
30598;BME280;17365;48.878;8.334;2023-02-03T12:45:20;101399.56;;;7.99;89.36
30598;BME280;17365;48.878;8.334;2023-02-03T12:47:54;101413.78;;;7.86;89.91
30598;BME280;17365;48.878;8.334;2023-02-03T12:50:34;101402.66;;;7.88;89.95
30598;BME280;17365;48.878;8.334;2023-02-03T12:53:12;101413.69;;;7.83;90.29
30598;BME280;17365;48.878;8.334;2023-02-03T12:55:45;101415.16;;;8.02;89.90
30598;BME280;17365;48.878;8.334;2023-02-03T12:58:24;101397.06;;;8.02;89.53
30598;BME280;17365;48.878;8.334;2023-02-03T13:00:58;101391.66;;;7.94;89.68
30598;BME280;17365;48.878;8.334;2023-02-03T13:03:35;101382.00;;;7.88;90.14
30598;BME280;17365;48.878;8.334;2023-02-03T13:08:46;101324.13;;;8.10;89.38
30598;BME280;17365;48.878;8.334;2023-02-03T13:11:32;101324.91;;;8.08;89.27
30598;BME280;17365;48.878;8.334;2023-02-03T13:14:13;101317.72;;;7.98;89.98
30598;BME280;17365;48.878;8.334;2023-02-03T13:16:47;101312.97;;;8.11;89.63
30598;BME280;17365;48.878;8.334;2023-02-03T13:19:24;101318.28;;;8.16;88.78
30598;BME280;17365;48.878;8.334;2023-02-03T13:21:52;101315.72;;;8.44;88.23
30598;BME280;17365;48.878;8.334;2023-02-03T13:24:17;101308.44;;;8.33;88.68
30598;BME280;17365;48.878;8.334;2023-02-03T13:27:27;101313.53;;;8.30;88.85
30598;BME280;17365;48.878;8.334;2023-02-03T13:30:08;101333.94;;;8.49;88.11
30598;BME280;17365;48.878;8.334;2023-02-03T13:39:01;101315.69;;;8.43;86.99
30598;BME280;17365;48.878;8.334;2023-02-03T13:41:46;101311.81;;;8.59;86.45
30598;BME280;17365;48.878;8.334;2023-02-03T13:44:16;101306.78;;;8.62;86.45
30598;BME280;17365;48.878;8.334;2023-02-03T13:46:46;101305.78;;;8.58;86.93
30598;BME280;17365;48.878;8.334;2023-02-03T13:49:22;101298.66;;;8.50;86.67
30598;BME280;17365;48.878;8.334;2023-02-03T13:51:49;101305.78;;;8.58;86.63
30598;BME280;17365;48.878;8.334;2023-02-03T13:56:55;101318.31;;;8.44;86.92
30598;BME280;17365;48.878;8.334;2023-02-03T13:59:40;101312.38;;;8.49;86.90
30598;BME280;17365;48.878;8.334;2023-02-03T14:25:43;101329.63;;;8.48;86.88
30598;BME280;17365;48.878;8.334;2023-02-03T14:28:13;101322.63;;;8.44;87.88
30598;BME280;17365;48.878;8.334;2023-02-03T14:53:28;101331.16;;;8.41;87.58
30598;BME280;17365;48.878;8.334;2023-02-03T14:59:01;101339.19;;;8.51;87.49
30598;BME280;17365;48.878;8.334;2023-02-03T15:06:45;101343.28;;;8.44;87.11
30598;BME280;17365;48.878;8.334;2023-02-03T15:11:45;101351.81;;;8.40;87.26
30598;BME280;17365;48.878;8.334;2023-02-03T15:14:26;101358.72;;;8.41;87.49
30598;BME280;17365;48.878;8.334;2023-02-03T15:16:55;101368.59;;;8.54;87.33
30598;BME280;17365;48.878;8.334;2023-02-03T15:19:23;101361.41;;;8.44;87.39
30598;BME280;17365;48.878;8.334;2023-02-03T15:21:49;101340.72;;;8.44;87.49
30598;BME280;17365;48.878;8.334;2023-02-03T15:24:17;101338.84;;;8.38;87.51
30598;BME280;17365;48.878;8.334;2023-02-03T15:26:47;101337.28;;;8.45;87.26
30598;BME280;17365;48.878;8.334;2023-02-03T15:29:21;101326.34;;;8.54;86.99
30598;BME280;17365;48.878;8.334;2023-02-03T15:31:51;101334.75;;;8.46;86.91
30598;BME280;17365;48.878;8.334;2023-02-03T15:37:10;101349.25;;;8.41;87.31
30598;BME280;17365;48.878;8.334;2023-02-03T15:42:21;101373.97;;;8.33;87.97